Time,TemperatureF,DewpointF,PressureIn,WindDirection,WindDirectionDegrees,WindSpeedMPH,WindSpeedGustMPH,Humidity,HourlyPrecipIn,Conditions,Clouds,dailyrainin,SoftwareType,DateUTC
2013-07-02 00:02:00,48.0,41.0,30.19,NE,34,0.0,-999.0,78,-99.99,,,-99.99,,2013-07-02 04:02:00,
2013-07-02 00:11:00,47.0,41.0,30.19,NE,34,0.0,-999.0,79,-99.99,,,-99.99,,2013-07-02 04:11:00,
2013-07-02 00:22:00,47.0,41.0,30.19,NE,34,0.0,-999.0,79,-99.99,,,-99.99,,2013-07-02 04:22:00,
2013-07-02 00:32:00,47.0,41.0,30.19,NE,34,0.0,-999.0,79,-99.99,,,-99.99,,2013-07-02 04:32:00,
2013-07-02 00:42:00,46.0,41.0,30.19,NE,34,0.0,-999.0,82,-99.99,,,-99.99,,2013-07-02 04:42:00,
2013-07-02 00:53:00,46.0,41.0,30.19,NE,34,0.0,-999.0,82,-99.99,,,-99.99,,2013-07-02 04:53:00,
2013-07-02 01:01:00,45.0,40.0,30.19,NE,34,0.0,-999.0,84,-99.99,,,-99.99,,2013-07-02 05:01:00,
2013-07-02 01:11:00,44.0,40.0,30.19,NE,34,0.0,-999.0,86,-99.99,,,-99.99,,2013-07-02 05:11:00,
2013-07-02 01:22:00,44.0,40.0,30.19,NE,34,0.0,-999.0,86,-99.99,,,-99.99,,2013-07-02 05:22:00,
2013-07-02 01:32:00,44.0,40.0,30.19,NE,34,0.0,-999.0,86,-99.99,,,-99.99,,2013-07-02 05:32:00,
2013-07-02 01:43:00,43.0,39.0,30.19,NE,34,0.0,-999.0,86,-99.99,,,-99.99,,2013-07-02 05:43:00,
2013-07-02 01:53:00,42.0,38.0,30.20,NE,34,0.0,-999.0,87,-99.99,,,-99.99,,2013-07-02 05:53:00,
2013-07-02 02:01:00,42.0,38.0,30.20,NE,34,0.0,-999.0,87,-99.99,,,-99.99,,2013-07-02 06:01:00,
2013-07-02 02:12:00,42.0,39.0,30.19,NE,34,0.0,-999.0,88,-99.99,,,-99.99,,2013-07-02 06:12:00,
2013-07-02 02:23:00,41.0,38.0,30.19,NE,34,0.0,-999.0,89,-99.99,,,-99.99,,2013-07-02 06:23:00,
2013-07-02 02:34:00,41.0,38.0,30.19,NE,34,0.0,-999.0,89,-99.99,,,-99.99,,2013-07-02 06:34:00,
2013-07-02 02:43:00,41.0,38.0,30.19,NE,34,0.0,-999.0,90,-99.99,,,-99.99,,2013-07-02 06:43:00,
2013-07-02 02:53:00,41.0,39.0,30.19,NE,34,0.0,-999.0,91,-99.99,,,-99.99,,2013-07-02 06:53:00,
2013-07-02 03:01:00,41.0,39.0,30.19,NE,34,0.0,-999.0,91,-99.99,,,-99.99,,2013-07-02 07:01:00,
2013-07-02 03:12:00,41.0,39.0,30.19,NE,34,0.0,-999.0,91,-99.99,,,-99.99,,2013-07-02 07:12:00,
2013-07-02 03:22:00,41.0,38.0,30.19,NE,34,0.0,-999.0,90,-99.99,,,-99.99,,2013-07-02 07:22:00,
2013-07-02 03:34:00,41.0,38.0,30.19,NE,34,0.0,-999.0,90,-99.99,,,-99.99,,2013-07-02 07:34:00,
2013-07-02 03:44:00,40.0,37.0,30.19,NE,34,0.0,-999.0,90,-99.99,,,-99.99,,2013-07-02 07:44:00,
2013-07-02 03:53:00,40.0,38.0,30.19,NE,34,0.0,-999.0,91,-99.99,,,-99.99,,2013-07-02 07:53:00,
2013-07-02 04:02:00,40.0,38.0,30.19,NE,34,0.0,-999.0,91,-99.99,,,-99.99,,2013-07-02 08:02:00,
2013-07-02 04:12:00,40.0,37.0,30.19,NE,34,0.0,-999.0,90,-99.99,,,-99.99,,2013-07-02 08:12:00,
2013-07-02 04:22:00,39.0,36.0,30.19,NE,34,0.0,-999.0,90,-99.99,,,-99.99,,2013-07-02 08:22:00,
2013-07-02 04:33:00,39.0,36.0,30.19,NE,34,0.0,-999.0,90,-99.99,,,-99.99,,2013-07-02 08:33:00,
2013-07-02 04:44:00,39.0,37.0,30.19,NE,34,0.0,-999.0,91,-99.99,,,-99.99,,2013-07-02 08:44:00,
2013-07-02 04:53:00,39.0,37.0,30.19,NE,34,0.0,-999.0,92,-99.99,,,-99.99,,2013-07-02 08:53:00,
2013-07-02 05:02:00,39.0,37.0,30.19,NE,34,0.0,-999.0,92,-99.99,,,-99.99,,2013-07-02 09:02:00,
2013-07-02 05:11:00,39.0,37.0,30.20,NE,34,0.0,-999.0,92,-99.99,,,-99.99,,2013-07-02 09:11:00,
2013-07-02 05:23:00,39.0,37.0,30.20,NE,34,0.0,-999.0,92,-99.99,,,-99.99,,2013-07-02 09:23:00,
2013-07-02 05:33:00,39.0,37.0,30.20,NE,34,0.0,-999.0,92,-99.99,,,-99.99,,2013-07-02 09:33:00,
2013-07-02 05:43:00,39.0,37.0,30.19,NE,34,0.0,-999.0,92,-99.99,,,-99.99,,2013-07-02 09:43:00,
2013-07-02 05:52:00,39.0,37.0,30.19,NE,34,0.0,-999.0,92,-99.99,,,-99.99,,2013-07-02 09:52:00,
2013-07-02 06:01:00,39.0,37.0,30.19,NE,34,0.0,-999.0,92,-99.99,,,-99.99,,2013-07-02 10:01:00,
2013-07-02 06:11:00,39.0,37.0,30.19,NE,34,0.0,-999.0,92,-99.99,,,-99.99,,2013-07-02 10:11:00,
2013-07-02 06:22:00,39.0,37.0,30.19,NE,34,0.0,-999.0,92,-99.99,,,-99.99,,2013-07-02 10:22:00,
2013-07-02 06:33:00,39.0,37.0,30.19,NE,34,0.0,-999.0,92,-99.99,,,-99.99,,2013-07-02 10:33:00,
2013-07-02 06:44:00,39.0,37.0,30.19,NE,34,0.0,-999.0,93,-99.99,,,-99.99,,2013-07-02 10:44:00,
2013-07-02 06:52:00,40.0,38.0,30.19,NE,34,0.0,-999.0,92,-99.99,,,-99.99,,2013-07-02 10:52:00,
2013-07-02 07:01:00,40.0,38.0,30.19,NE,34,0.0,-999.0,92,-99.99,,,-99.99,,2013-07-02 11:01:00,
2013-07-02 07:11:00,40.0,38.0,30.19,NE,34,0.0,-999.0,92,-99.99,,,-99.99,,2013-07-02 11:11:00,
2013-07-02 07:22:00,40.0,38.0,30.20,NE,34,0.0,-999.0,93,-99.99,,,-99.99,,2013-07-02 11:22:00,
2013-07-02 07:33:00,40.0,38.0,30.20,NE,34,0.0,-999.0,93,-99.99,,,-99.99,,2013-07-02 11:33:00,
2013-07-02 07:42:00,42.0,40.0,30.20,NE,34,0.0,-999.0,93,-99.99,,,-99.99,,2013-07-02 11:42:00,
2013-07-02 07:52:00,46.0,43.0,30.20,NE,34,0.0,-999.0,88,-99.99,,,-99.99,,2013-07-02 11:52:00,
2013-07-02 08:01:00,46.0,43.0,30.20,NE,34,0.0,-999.0,88,-99.99,,,-99.99,,2013-07-02 12:01:00,
2013-07-02 08:11:00,49.0,43.0,30.21,NE,34,0.0,-999.0,81,-99.99,,,-99.99,,2013-07-02 12:11:00,
2013-07-02 08:23:00,51.0,45.0,30.20,NE,34,0.0,-999.0,81,-99.99,,,-99.99,,2013-07-02 12:23:00,
2013-07-02 08:33:00,51.0,45.0,30.20,NE,34,0.0,-999.0,81,-99.99,,,-99.99,,2013-07-02 12:33:00,
2013-07-02 08:43:00,55.0,47.0,30.20,NE,34,0.0,-999.0,73,-99.99,,,-99.99,,2013-07-02 12:43:00,
2013-07-02 10:02:00,65.0,48.0,30.20,NE,34,0.0,-999.0,55,-99.99,,,-99.99,,2013-07-02 14:02:00,
2013-07-02 10:43:00,69.0,52.0,30.19,East,93,0.0,-999.0,54,-99.99,,,-99.99,,2013-07-02 14:43:00,
2013-07-02 11:11:00,69.0,50.0,30.18,ESE,119,2.0,-999.0,51,-99.99,,,-99.99,,2013-07-02 15:11:00,
2013-07-02 11:22:00,70.0,50.0,30.18,South,175,1.0,-999.0,50,-99.99,,,-99.99,,2013-07-02 15:22:00,
2013-07-02 11:33:00,70.0,50.0,30.18,South,175,1.0,-999.0,50,-99.99,,,-99.99,,2013-07-02 15:33:00,
2013-07-02 11:44:00,70.0,50.0,30.18,South,175,1.0,-999.0,50,-99.99,,,-99.99,,2013-07-02 15:44:00,
2013-07-02 11:53:00,71.0,50.0,30.18,SSE,161,2.0,-999.0,48,-99.99,,,-99.99,,2013-07-02 15:53:00,
2013-07-02 12:01:00,71.0,50.0,30.18,SSE,161,2.0,-999.0,48,-99.99,,,-99.99,,2013-07-02 16:01:00,
2013-07-02 12:12:00,71.0,49.0,30.18,South,170,2.0,-999.0,45,-99.99,,,-99.99,,2013-07-02 16:12:00,
2013-07-02 12:22:00,71.0,48.0,30.17,SSE,163,2.0,-999.0,44,-99.99,,,-99.99,,2013-07-02 16:22:00,
2013-07-02 12:33:00,71.0,48.0,30.17,SSE,163,2.0,-999.0,44,-99.99,,,-99.99,,2013-07-02 16:33:00,
2013-07-02 12:43:00,71.0,50.0,30.17,SSW,198,2.0,-999.0,47,-99.99,,,-99.99,,2013-07-02 16:43:00,
2013-07-02 12:52:00,72.0,49.0,30.16,South,189,3.0,-999.0,44,-99.99,,,-99.99,,2013-07-02 16:52:00,
2013-07-02 13:02:00,72.0,49.0,30.16,South,189,3.0,-999.0,44,-99.99,,,-99.99,,2013-07-02 17:02:00,
2013-07-02 13:12:00,72.0,49.0,30.17,SE,140,1.0,-999.0,44,-99.99,,,-99.99,,2013-07-02 17:12:00,
2013-07-02 13:33:00,73.0,48.0,30.16,South,185,3.0,-999.0,41,-99.99,,,-99.99,,2013-07-02 17:33:00,
2013-07-02 13:43:00,73.0,47.0,30.16,East,100,2.0,-999.0,40,-99.99,,,-99.99,,2013-07-02 17:43:00,
2013-07-02 13:53:00,74.0,45.0,30.16,ENE,58,3.0,-999.0,35,-99.99,,,-99.99,,2013-07-02 17:53:00,
2013-07-02 14:02:00,74.0,45.0,30.16,ENE,58,3.0,-999.0,35,-99.99,,,-99.99,,2013-07-02 18:02:00,
2013-07-02 14:12:00,73.0,44.0,30.16,ESE,111,2.0,-999.0,35,-99.99,,,-99.99,,2013-07-02 18:12:00,
2013-07-02 14:23:00,73.0,44.0,30.15,ENE,64,3.0,-999.0,35,-99.99,,,-99.99,,2013-07-02 18:23:00,
2013-07-02 14:34:00,73.0,44.0,30.15,ENE,64,3.0,-999.0,35,-99.99,,,-99.99,,2013-07-02 18:34:00,
2013-07-02 14:43:00,74.0,50.0,30.15,SE,126,3.0,-999.0,43,-99.99,,,-99.99,,2013-07-02 18:43:00,
2013-07-02 14:53:00,74.0,49.0,30.14,ENE,72,3.0,-999.0,42,-99.99,,,-99.99,,2013-07-02 18:53:00,
2013-07-02 15:01:00,74.0,49.0,30.14,ENE,72,3.0,-999.0,42,-99.99,,,-99.99,,2013-07-02 19:01:00,
2013-07-02 15:12:00,74.0,51.0,30.14,ESE,118,3.0,-999.0,45,-99.99,,,-99.99,,2013-07-02 19:12:00,
2013-07-02 15:22:00,74.0,50.0,30.14,ENE,70,4.0,-999.0,43,-99.99,,,-99.99,,2013-07-02 19:22:00,
2013-07-02 15:34:00,74.0,50.0,30.14,ENE,70,4.0,-999.0,43,-99.99,,,-99.99,,2013-07-02 19:34:00,
2013-07-02 15:43:00,74.0,47.0,30.14,ENE,66,3.0,-999.0,38,-99.99,,,-99.99,,2013-07-02 19:43:00,
2013-07-02 15:53:00,73.0,48.0,30.14,East,88,5.0,-999.0,41,-99.99,,,-99.99,,2013-07-02 19:53:00,
2013-07-02 16:02:00,73.0,48.0,30.14,East,88,5.0,-999.0,41,-99.99,,,-99.99,,2013-07-02 20:02:00,
2013-07-02 16:11:00,73.0,46.0,30.13,ENE,71,4.0,-999.0,38,-99.99,,,-99.99,,2013-07-02 20:11:00,
2013-07-02 16:22:00,73.0,47.0,30.13,ESE,107,3.0,-999.0,39,-99.99,,,-99.99,,2013-07-02 20:22:00,
2013-07-02 16:33:00,73.0,47.0,30.13,ESE,107,3.0,-999.0,39,-99.99,,,-99.99,,2013-07-02 20:33:00,
2013-07-02 16:43:00,73.0,44.0,30.12,ENE,74,3.0,-999.0,35,-99.99,,,-99.99,,2013-07-02 20:43:00,
2013-07-02 16:52:00,73.0,44.0,30.12,ENE,73,4.0,-999.0,35,-99.99,,,-99.99,,2013-07-02 20:52:00,
2013-07-02 17:02:00,73.0,44.0,30.12,ENE,73,4.0,-999.0,35,-99.99,,,-99.99,,2013-07-02 21:02:00,
2013-07-02 17:11:00,73.0,44.0,30.12,East,83,4.0,-999.0,36,-99.99,,,-99.99,,2013-07-02 21:11:00,
2013-07-02 17:22:00,73.0,45.0,30.12,East,84,4.0,-999.0,37,-99.99,,,-99.99,,2013-07-02 21:22:00,
2013-07-02 17:33:00,73.0,45.0,30.12,East,84,4.0,-999.0,37,-99.99,,,-99.99,,2013-07-02 21:33:00,
2013-07-02 17:44:00,72.0,46.0,30.11,ESE,117,4.0,-999.0,40,-99.99,,,-99.99,,2013-07-02 21:44:00,
2013-07-02 17:52:00,72.0,46.0,30.11,NE,50,4.0,-999.0,39,-99.99,,,-99.99,,2013-07-02 21:52:00,
2013-07-02 18:01:00,72.0,46.0,30.11,NE,50,4.0,-999.0,39,-99.99,,,-99.99,,2013-07-02 22:01:00,
2013-07-02 18:11:00,72.0,46.0,30.11,East,84,4.0,-999.0,39,-99.99,,,-99.99,,2013-07-02 22:11:00,
2013-07-02 18:22:00,71.0,45.0,30.11,ENE,69,5.0,-999.0,40,-99.99,,,-99.99,,2013-07-02 22:22:00,
2013-07-02 18:34:00,71.0,45.0,30.11,ENE,69,5.0,-999.0,40,-99.99,,,-99.99,,2013-07-02 22:34:00,
2013-07-02 18:43:00,71.0,45.0,30.11,North,11,4.0,-999.0,39,-99.99,,,-99.99,,2013-07-02 22:43:00,
2013-07-02 18:53:00,70.0,45.0,30.11,ENE,73,3.0,-999.0,40,-99.99,,,-99.99,,2013-07-02 22:53:00,
2013-07-02 19:01:00,70.0,45.0,30.11,ENE,73,3.0,-999.0,40,-99.99,,,-99.99,,2013-07-02 23:01:00,
2013-07-02 19:11:00,70.0,45.0,30.11,ESE,108,2.0,-999.0,40,-99.99,,,-99.99,,2013-07-02 23:11:00,
2013-07-02 19:22:00,70.0,45.0,30.10,NE,55,2.0,-999.0,40,-99.99,,,-99.99,,2013-07-02 23:22:00,
2013-07-02 19:33:00,70.0,45.0,30.10,NE,55,2.0,-999.0,40,-99.99,,,-99.99,,2013-07-02 23:33:00,
2013-07-02 19:44:00,69.0,45.0,30.10,SE,128,2.0,-999.0,42,-99.99,,,-99.99,,2013-07-02 23:44:00,
2013-07-02 19:52:00,68.0,45.0,30.10,NE,52,3.0,-999.0,43,-99.99,,,-99.99,,2013-07-02 23:52:00,
2013-07-02 20:01:00,68.0,45.0,30.10,NE,52,3.0,-999.0,43,-99.99,,,-99.99,,2013-07-03 00:01:00,
2013-07-02 20:11:00,67.0,44.0,30.10,ESE,118,3.0,-999.0,43,-99.99,,,-99.99,,2013-07-03 00:11:00,
2013-07-02 20:22:00,67.0,43.0,30.10,SE,132,2.0,-999.0,42,-99.99,,,-99.99,,2013-07-03 00:22:00,
2013-07-02 20:33:00,67.0,43.0,30.10,SE,132,2.0,-999.0,42,-99.99,,,-99.99,,2013-07-03 00:33:00,
2013-07-02 20:44:00,66.0,43.0,30.10,ESE,105,1.0,-999.0,44,-99.99,,,-99.99,,2013-07-03 00:44:00,
2013-07-02 20:52:00,66.0,43.0,30.10,ESE,105,1.0,-999.0,44,-99.99,,,-99.99,,2013-07-03 00:52:00,
2013-07-02 21:01:00,65.0,41.0,30.10,ESE,108,1.0,-999.0,42,-99.99,,,-99.99,,2013-07-03 01:01:00,
2013-07-02 21:11:00,64.0,41.0,30.11,East,83,1.0,-999.0,43,-99.99,,,-99.99,,2013-07-03 01:11:00,
2013-07-02 21:22:00,64.0,41.0,30.11,East,83,1.0,-999.0,43,-99.99,,,-99.99,,2013-07-03 01:22:00,
2013-07-02 21:33:00,64.0,42.0,30.10,ESE,109,1.0,-999.0,44,-99.99,,,-99.99,,2013-07-03 01:33:00,
2013-07-02 21:42:00,64.0,42.0,30.10,ESE,109,1.0,-999.0,44,-99.99,,,-99.99,,2013-07-03 01:42:00,
2013-07-02 21:59:00,63.0,41.0,30.10,ESE,111,0.0,-999.0,45,-99.99,,,-99.99,,2013-07-03 01:59:00,
2013-07-02 22:04:00,63.0,41.0,30.10,ESE,111,0.0,-999.0,45,-99.99,,,-99.99,,2013-07-03 02:04:00,
2013-07-02 22:27:00,62.0,41.0,30.10,ESE,116,1.0,-999.0,46,-99.99,,,-99.99,,2013-07-03 02:27:00,
2013-07-02 22:44:00,59.0,42.0,30.11,ESE,116,0.0,-999.0,54,-99.99,,,-99.99,,2013-07-03 02:44:00,
2013-07-02 22:55:00,59.0,42.0,30.11,ESE,116,0.0,-999.0,54,-99.99,,,-99.99,,2013-07-03 02:55:00,
2013-07-02 23:05:00,58.0,43.0,30.12,ESE,116,0.0,-999.0,58,-99.99,,,-99.99,,2013-07-03 03:05:00,
2013-07-02 23:13:00,56.0,44.0,30.12,ESE,116,0.0,-999.0,63,-99.99,,,-99.99,,2013-07-03 03:13:00,
2013-07-02 23:25:00,56.0,44.0,30.11,ESE,116,0.0,-999.0,63,-99.99,,,-99.99,,2013-07-03 03:25:00,
2013-07-02 23:35:00,56.0,44.0,30.11,ESE,116,0.0,-999.0,63,-99.99,,,-99.99,,2013-07-03 03:35:00,
2013-07-02 23:47:00,55.0,44.0,30.11,ESE,116,0.0,-999.0,67,-99.99,,,-99.99,,2013-07-03 03:47:00,
2013-07-02 23:55:00,54.0,44.0,30.11,ESE,116,0.0,-999.0,68,-99.99,,,-99.99,,2013-07-03 03:55:00,